Time;durP1;ratioP1;P1;durP2;ratioP2;P2;SDS_P1;SDS_P2;PMS_P1;PMS_P2;Temp;Humidity;BMP_temperature;BMP_pressure;BME280_temperature;BME280_humidity;BME280_pressure;Samples;Min_cycle;Max_cycle;Signal;HPM_P1;HPM_P2
2021/03/10 00:00:24;;;;;;;27.17;19.27;;;4.90;99.90;;;5.57;96.84;100853.00;5053412;28;20477;-79
2021/03/10 00:02:50;;;;;;;26.13;18.13;;;4.90;99.90;;;5.56;96.42;100851.34;5051444;28;20086;-78
2021/03/10 00:05:17;;;;;;;29.17;20.50;;;4.90;99.90;;;5.49;97.29;100846.28;5053505;28;20041;-79
2021/03/10 00:07:43;;;;;;;30.50;20.20;;;4.90;99.90;;;5.53;97.01;100852.81;5051514;28;20032;-77
2021/03/10 00:10:12;;;;;;;31.27;21.90;;;4.90;99.90;;;5.52;97.26;100844.84;5051839;28;20481;-80
2021/03/10 00:12:40;;;;;;;32.08;20.95;;;4.90;99.90;;;5.51;96.92;100840.44;5051498;28;20396;-78
2021/03/10 00:15:10;;;;;;;32.75;21.27;;;4.90;99.90;;;5.52;97.16;100839.31;5052117;28;20037;-79
2021/03/10 00:17:38;;;;;;;34.72;21.83;;;4.80;99.90;;;5.52;97.15;100842.88;5052230;28;20035;-79
2021/03/10 00:20:11;;;;;;;31.92;21.23;;;4.80;99.90;;;5.50;97.37;100836.84;5051501;28;20090;-78
2021/03/10 00:22:37;;;;;;;31.42;21.45;;;4.80;99.90;;;5.49;97.45;100839.94;5049436;28;20106;-77
2021/03/10 00:25:05;;;;;;;32.78;22.02;;;4.80;99.90;;;5.43;97.27;100833.72;5051331;28;20435;-78
2021/03/10 00:27:32;;;;;;;32.58;21.92;;;4.80;99.90;;;5.42;97.64;100834.88;5052258;28;20116;-77
2021/03/10 00:30:02;;;;;;;30.98;21.40;;;4.70;99.90;;;5.41;97.53;100840.72;5052222;28;20074;-78
2021/03/10 00:32:29;;;;;;;36.10;22.30;;;4.80;99.90;;;5.40;97.74;100834.34;5052045;28;20508;-78
2021/03/10 00:34:57;;;;;;;34.80;21.83;;;4.70;99.90;;;5.38;97.90;100842.16;5053029;28;20068;-78
2021/03/10 00:37:24;;;;;;;38.33;23.80;;;4.70;99.90;;;5.39;98.14;100841.03;5052285;28;20036;-77
2021/03/10 00:39:50;;;;;;;36.33;22.70;;;4.70;99.90;;;5.41;98.36;100838.75;5051982;28;20029;-79
2021/03/10 00:42:18;;;;;;;39.35;23.73;;;4.70;99.90;;;5.43;98.08;100832.88;5053632;28;20381;-77
2021/03/10 00:44:44;;;;;;;35.88;22.90;;;4.70;99.90;;;5.44;97.87;100840.88;5052185;28;20568;-78
2021/03/10 00:47:12;;;;;;;39.00;24.65;;;4.80;99.90;;;5.43;97.83;100832.88;5051296;28;20029;-79
2021/03/10 00:49:41;;;;;;;39.95;24.27;;;4.70;99.90;;;5.43;98.12;100835.66;5052828;28;20086;-80
2021/03/10 00:52:07;;;;;;;42.38;26.48;;;4.80;99.90;;;5.40;97.95;100833.53;5060079;28;20036;-79
2021/03/10 00:54:35;;;;;;;41.47;25.08;;;4.70;99.90;;;5.44;98.08;100840.88;5061250;28;20106;-78
2021/03/10 00:57:01;;;;;;;41.22;24.50;;;4.70;99.90;;;5.45;98.24;100838.94;5055630;28;20082;-79
2021/03/10 00:59:28;;;;;;;36.75;23.15;;;4.70;99.90;;;5.43;98.25;100844.78;5055956;28;20029;-78
2021/03/10 01:01:55;;;;;;;43.17;25.63;;;4.70;99.90;;;5.54;97.58;100848.09;5055794;28;20496;-78
2021/03/10 01:04:21;;;;;;;42.83;25.65;;;4.80;99.90;;;5.50;96.98;100839.59;5055325;28;20025;-77
2021/03/10 01:06:47;;;;;;;36.60;22.92;;;4.80;99.90;;;5.48;96.99;100839.13;5055101;28;20037;-78
2021/03/10 01:09:14;;;;;;;39.10;24.80;;;4.80;99.90;;;5.49;97.39;100834.41;5055688;28;20115;-79
2021/03/10 01:11:40;;;;;;;42.70;26.65;;;4.80;99.90;;;5.44;97.57;100838.13;5054257;28;20033;-79
2021/03/10 01:14:07;;;;;;;45.38;27.08;;;4.80;99.90;;;5.41;97.35;100827.69;5055645;28;20041;-79
2021/03/10 01:16:34;;;;;;;41.95;24.83;;;4.70;99.90;;;5.42;97.34;100840.41;5055886;28;20083;-77
2021/03/10 01:19:01;;;;;;;38.83;24.65;;;4.70;99.90;;;5.38;97.39;100846.88;5054858;28;20053;-77
2021/03/10 01:21:27;;;;;;;38.05;24.10;;;4.70;99.90;;;5.30;97.45;100852.06;5054181;28;20039;-79
2021/03/10 01:23:53;;;;;;;40.22;25.45;;;4.60;99.90;;;5.28;97.66;100848.81;5054959;28;20455;-78
2021/03/10 01:26:19;;;;;;;42.40;25.25;;;4.60;99.90;;;5.31;97.94;100858.41;5054975;28;20029;-79
2021/03/10 01:28:45;;;;;;;40.40;24.33;;;4.60;99.90;;;5.32;97.86;100858.13;5055881;28;20063;-79
2021/03/10 01:31:11;;;;;;;44.92;26.05;;;4.70;99.90;;;5.36;97.84;100863.03;5054808;28;20021;-80
2021/03/10 01:33:37;;;;;;;44.47;25.63;;;4.60;99.90;;;5.35;97.82;100862.19;5056125;28;20041;-79
2021/03/10 01:36:04;;;;;;;40.83;25.90;;;4.70;99.90;;;5.37;97.84;100864.63;5054875;28;20523;-77
2021/03/10 01:38:29;;;;;;;43.05;25.67;;;4.70;99.90;;;5.35;97.91;100862.19;5054991;28;20377;-79
2021/03/10 01:40:55;;;;;;;45.17;27.25;;;4.70;99.90;;;5.33;97.91;100865.28;5054209;28;20056;-78
2021/03/10 01:43:21;;;;;;;42.67;25.70;;;4.60;99.90;;;5.29;98.24;100866.25;5054986;28;20029;-79
2021/03/10 01:45:47;;;;;;;40.92;25.83;;;4.60;99.90;;;5.22;97.57;100865.88;5055044;28;20037;-78
2021/03/10 01:48:20;;;;;;;41.80;26.20;;;4.50;99.90;;;5.14;97.62;100864.66;5054124;28;20037;-79
2021/03/10 01:50:47;;;;;;;43.70;25.70;;;4.50;99.90;;;5.09;97.76;100864.81;5054086;28;20037;-80
2021/03/10 01:53:13;;;;;;;42.03;25.23;;;4.40;99.90;;;5.09;98.37;100866.75;5053885;28;20601;-79
2021/03/10 01:55:39;;;;;;;49.70;27.63;;;4.40;99.90;;;5.09;98.27;100861.22;5053550;28;20029;-79
2021/03/10 01:58:05;;;;;;;45.28;26.02;;;4.40;99.90;;;5.09;98.29;100867.59;5054116;28;20495;-79
2021/03/10 02:00:31;;;;;;;44.72;27.50;;;4.40;99.90;;;5.00;98.61;100875.03;5053959;28;20039;-79
2021/03/10 02:02:57;;;;;;;46.45;28.02;;;4.40;99.90;;;4.99;98.64;100873.38;5054331;28;20112;-78
2021/03/10 02:05:25;;;;;;;43.83;27.85;;;4.30;99.90;;;4.97;97.96;100869.31;5053923;28;20029;-78
2021/03/10 02:08:13;;;;;;;46.03;26.92;;;4.30;99.90;;;4.86;97.97;100879.78;5052254;28;20059;-77
2021/03/10 02:10:56;;;;;;;48.30;27.50;;;4.20;99.90;;;4.76;98.89;100877.28;5051376;28;20025;-79
2021/03/10 02:13:50;;;;;;;47.05;26.00;;;4.20;99.90;;;4.67;98.61;100868.09;5053706;28;20039;-77
2021/03/10 02:16:54;;;;;;;45.22;26.27;;;4.10;99.90;;;4.65;98.51;100867.59;5034215;28;20029;-78
2021/03/10 02:19:31;;;;;;;50.42;27.48;;;4.00;99.90;;;4.56;98.66;100869.47;5052898;28;20484;-79
2021/03/10 02:23:06;;;;;;;46.63;27.08;;;4.00;99.90;;;4.47;98.98;100851.97;5052803;28;20404;-79
2021/03/10 02:25:53;;;;;;;47.10;26.95;;;3.90;99.90;;;4.33;99.03;100849.28;4987125;28;20046;-79
2021/03/10 02:28:20;;;;;;;52.60;28.45;;;3.70;99.90;;;4.24;99.01;100849.16;4994907;28;20030;-79
2021/03/10 02:30:52;;;;;;;55.53;30.13;;;3.70;99.90;;;4.15;99.46;100839.16;5038965;28;20047;-79
2021/03/10 02:33:25;;;;;;;54.10;29.15;;;3.60;99.90;;;4.07;99.17;100839.91;5034253;28;20033;-79
2021/03/10 02:36:08;;;;;;;59.65;31.50;;;3.50;99.90;;;4.01;99.72;100846.69;5052576;28;20196;-79
2021/03/10 02:38:38;;;;;;;73.18;34.80;;;3.40;99.90;;;3.93;100.00;100833.56;5052436;28;20032;-79
2021/03/10 02:41:06;;;;;;;84.50;37.20;;;3.40;99.90;;;3.92;100.00;100840.22;5053406;28;20033;-79
2021/03/10 02:43:33;;;;;;;87.72;38.28;;;3.30;99.90;;;3.88;100.00;100839.22;5051850;28;20472;-77
2021/03/10 02:46:04;;;;;;;89.43;39.38;;;3.30;99.90;;;3.83;100.00;100826.31;5052420;28;20033;-77
2021/03/10 02:48:33;;;;;;;96.10;40.00;;;3.30;99.90;;;3.79;100.00;100841.88;5054322;28;20581;-81
2021/03/10 02:51:02;;;;;;;87.22;38.90;;;3.20;99.90;;;3.73;100.00;100830.13;5054915;28;20028;-79
2021/03/10 02:53:31;;;;;;;109.63;40.78;;;3.20;99.90;;;3.73;100.00;100835.66;5053524;28;20033;-78
2021/03/10 02:55:58;;;;;;;106.05;41.53;;;3.20;99.90;;;3.81;100.00;100847.94;5053407;28;20557;-78
2021/03/10 02:58:24;;;;;;;109.43;43.30;;;3.20;99.90;;;3.85;100.00;100840.66;5053670;28;20033;-78
2021/03/10 03:00:50;;;;;;;103.10;42.33;;;3.20;99.90;;;3.89;100.00;100841.66;5052864;28;20040;-79
2021/03/10 03:03:16;;;;;;;97.72;40.38;;;3.30;99.90;;;3.91;100.00;100846.91;5053831;28;20036;-79
2021/03/10 03:05:42;;;;;;;108.05;42.58;;;3.30;99.90;;;3.92;100.00;100857.63;5054178;28;20108;-77
2021/03/10 03:08:09;;;;;;;102.53;43.90;;;3.30;99.90;;;3.95;99.89;100853.44;5057987;28;20059;-79
2021/03/10 03:10:41;;;;;;;117.00;44.60;;;3.30;99.90;;;3.95;100.00;100854.25;5060570;28;20473;-78
2021/03/10 03:13:16;;;;;;;126.10;46.75;;;3.30;99.90;;;4.00;100.00;100853.31;5055276;28;20060;-79
2021/03/10 03:15:54;;;;;;;132.07;47.47;;;3.40;99.90;;;4.06;100.00;100852.09;5054036;28;20021;-77
2021/03/10 03:18:27;;;;;;;147.27;52.05;;;3.40;99.90;;;4.08;100.00;100841.53;5032723;28;20029;-75
2021/03/10 03:20:54;;;;;;;132.27;49.38;;;3.50;99.90;;;4.11;100.00;100840.94;5040563;28;20025;-75
2021/03/10 03:23:23;;;;;;;143.77;50.95;;;3.50;99.90;;;4.17;100.00;100843.25;5053613;28;20040;-79
2021/03/10 03:25:51;;;;;;;143.60;49.67;;;3.60;99.90;;;4.21;99.51;100838.75;5053755;28;20140;-77
2021/03/10 03:28:23;;;;;;;141.48;48.58;;;3.60;99.90;;;4.24;99.71;100829.81;5052290;28;20094;-78
2021/03/10 03:30:54;;;;;;;127.13;46.40;;;3.70;99.90;;;4.27;99.82;100827.56;5053258;28;20044;-77
2021/03/10 03:33:29;;;;;;;122.57;47.13;;;3.70;99.90;;;4.38;99.51;100831.72;5053374;28;20029;-78
2021/03/10 03:35:58;;;;;;;115.68;46.33;;;3.70;99.90;;;4.41;98.98;100829.16;5054014;28;20032;-77
2021/03/10 03:38:29;;;;;;;110.55;44.28;;;3.80;99.90;;;4.43;99.08;100835.19;5052948;28;20032;-77
2021/03/10 03:40:56;;;;;;;111.60;44.10;;;3.80;99.90;;;4.42;98.67;100835.50;5053549;28;20055;-79
2021/03/10 03:43:27;;;;;;;115.50;43.10;;;3.80;99.90;;;4.42;98.52;100839.09;5053490;28;20480;-77
2021/03/10 03:45:55;;;;;;;111.72;44.47;;;3.80;99.90;;;4.41;98.45;100837.44;5052233;28;20052;-77
2021/03/10 03:48:22;;;;;;;96.35;42.30;;;3.80;99.90;;;4.42;98.60;100835.50;5051985;28;20027;-79
2021/03/10 03:50:59;;;;;;;;;;;;;;;;;;;;;
2021/03/10 03:53:25;;;;;;;104.22;42.58;;;3.80;99.90;;;4.35;98.34;100827.66;5053054;28;20032;-79
2021/03/10 03:55:51;;;;;;;97.82;42.65;;;3.80;99.90;;;4.38;98.38;100824.25;5052976;28;20116;-78
2021/03/10 03:58:17;;;;;;;95.80;41.40;;;3.80;99.90;;;4.36;98.60;100828.47;5052011;28;20098;-78
2021/03/10 04:00:43;;;;;;;110.85;43.75;;;3.80;99.90;;;4.38;98.62;100829.78;5053478;28;20032;-79
2021/03/10 04:03:09;;;;;;;96.40;41.45;;;3.80;99.90;;;4.45;98.06;100827.41;5052159;28;20037;-79
2021/03/10 04:05:35;;;;;;;92.82;40.85;;;3.80;99.90;;;4.44;97.81;100824.94;5053111;28;20032;-79
2021/03/10 04:08:01;;;;;;;90.95;38.03;;;3.80;99.90;;;4.38;98.76;100823.44;5053025;28;20084;-78
2021/03/10 04:10:33;;;;;;;86.38;39.63;;;3.80;99.90;;;4.41;98.36;100823.63;5051744;28;20400;-77
2021/03/10 04:13:00;;;;;;;85.70;38.33;;;3.80;99.90;;;4.37;98.93;100821.78;5053140;28;20484;-79
2021/03/10 04:15:29;;;;;;;86.15;38.03;;;3.80;99.90;;;4.37;98.77;100819.84;5051848;28;20047;-80
2021/03/10 04:17:56;;;;;;;82.32;39.42;;;3.80;99.90;;;4.36;98.36;100828.47;5052653;28;20400;-77
2021/03/10 04:20:23;;;;;;;87.20;39.72;;;3.70;99.90;;;4.36;98.82;100834.81;5051635;28;20025;-78
2021/03/10 04:22:51;;;;;;;94.50;39.47;;;3.70;99.90;;;4.29;98.90;100828.06;5052840;28;20043;-77
2021/03/10 04:25:17;;;;;;;86.32;39.05;;;3.70;99.90;;;4.17;99.10;100825.88;5051456;28;20100;-79
2021/03/10 04:27:44;;;;;;;90.38;40.60;;;3.60;99.90;;;4.08;99.30;100833.22;5053019;28;20488;-77
2021/03/10 04:30:13;;;;;;;91.10;41.38;;;3.60;99.90;;;3.97;99.57;100832.66;5054935;28;20028;-77
2021/03/10 04:32:40;;;;;;;92.95;39.90;;;3.50;99.90;;;3.88;99.34;100823.47;5056248;28;20033;-77
2021/03/10 04:35:08;;;;;;;101.88;42.33;;;3.40;99.90;;;3.81;100.00;100845.16;5055237;28;20496;-79
2021/03/10 04:37:34;;;;;;;92.97;40.75;;;3.40;99.90;;;3.83;100.00;100831.03;5056580;28;20353;-79
2021/03/10 04:40:02;;;;;;;95.72;42.55;;;3.30;99.90;;;3.82;100.00;100841.25;5055220;28;20706;-79
2021/03/10 04:42:28;;;;;;;99.03;41.75;;;3.30;99.90;;;3.72;100.00;100833.22;5056956;28;20039;-79
2021/03/10 04:44:54;;;;;;;98.30;43.78;;;3.30;99.90;;;3.76;100.00;100845.25;5055952;28;20033;-77
2021/03/10 04:47:20;;;;;;;104.55;43.50;;;3.30;99.90;;;3.79;100.00;100843.84;5057122;28;20358;-77
2021/03/10 04:49:46;;;;;;;110.20;45.67;;;3.30;99.90;;;3.80;100.00;100851.81;5055953;28;20037;-77
2021/03/10 04:52:12;;;;;;;114.38;47.97;;;3.30;99.90;;;3.83;100.00;100851.19;5054413;28;20708;-77
2021/03/10 04:54:38;;;;;;;110.68;47.42;;;3.30;99.90;;;3.85;100.00;100842.59;5057368;28;20029;-79
2021/03/10 04:57:05;;;;;;;109.72;46.70;;;3.30;99.90;;;3.77;100.00;100843.31;5057397;28;20120;-78
2021/03/10 04:59:31;;;;;;;111.47;44.78;;;3.30;99.90;;;3.77;100.00;100835.84;5056575;28;20029;-77
2021/03/10 05:01:57;;;;;;;108.40;46.55;;;3.30;99.90;;;3.81;100.00;100845.16;5057769;28;20573;-79
2021/03/10 05:04:22;;;;;;;130.27;48.97;;;3.30;99.90;;;3.85;100.00;100834.31;5056796;28;20029;-79
2021/03/10 05:06:48;;;;;;;116.72;48.17;;;3.30;99.90;;;3.93;100.00;100834.41;5058021;28;20041;-78
2021/03/10 05:09:14;;;;;;;110.95;46.75;;;3.40;99.90;;;3.97;100.00;100837.38;5057676;28;20052;-79
2021/03/10 05:11:40;;;;;;;109.53;48.75;;;3.40;99.90;;;4.01;100.00;100830.09;5057530;28;20036;-77
2021/03/10 05:14:06;;;;;;;100.35;42.90;;;3.40;99.90;;;4.04;100.00;100841.34;5057739;28;20067;-79
2021/03/10 05:16:32;;;;;;;103.15;44.70;;;3.40;99.90;;;3.93;100.00;100842.69;5058353;28;20033;-81
2021/03/10 05:18:58;;;;;;;98.82;42.90;;;3.40;99.90;;;3.98;100.00;100848.09;5059737;28;20036;-81
2021/03/10 05:21:24;;;;;;;101.53;44.85;;;3.40;99.90;;;3.93;100.00;100841.88;5058853;28;20025;-79
2021/03/10 05:23:50;;;;;;;83.90;42.63;;;3.40;99.90;;;3.89;100.00;100843.59;5058194;28;20064;-81
2021/03/10 05:26:15;;;;;;;102.18;44.15;;;3.30;99.90;;;3.85;100.00;100842.59;5067204;28;20051;-79
2021/03/10 05:28:41;;;;;;;102.82;43.83;;;3.30;99.90;;;3.76;100.00;100841.69;5073595;28;20029;-79
2021/03/10 05:31:08;;;;;;;87.95;39.97;;;3.20;99.90;;;3.71;100.00;100840.66;5054286;28;20040;-79
2021/03/10 05:33:35;;;;;;;94.07;42.92;;;3.20;99.90;;;3.66;100.00;100837.22;5055322;28;20117;-79
2021/03/10 05:36:02;;;;;;;91.40;41.85;;;3.10;99.90;;;3.61;100.00;100838.13;5055181;28;20036;-77
2021/03/10 05:38:32;;;;;;;97.10;42.78;;;3.10;99.90;;;3.56;100.00;100840.16;5055660;28;20064;-78
2021/03/10 05:40:59;;;;;;;101.55;43.45;;;3.10;99.90;;;3.54;100.00;100834.94;5053882;28;20037;-77
2021/03/10 05:43:26;;;;;;;95.78;42.38;;;3.00;99.90;;;3.54;100.00;100836.88;5054844;28;20041;-80
2021/03/10 05:45:52;;;;;;;96.43;42.88;;;3.00;99.90;;;3.51;100.00;100837.50;5054853;28;20500;-79
2021/03/10 05:48:18;;;;;;;100.38;44.28;;;3.00;99.90;;;3.49;100.00;100834.22;5054061;28;20086;-79
2021/03/10 05:50:44;;;;;;;98.45;43.15;;;3.00;99.90;;;3.50;100.00;100836.66;5057382;28;20057;-78
2021/03/10 05:53:15;;;;;;;102.32;44.58;;;3.00;99.90;;;3.46;100.00;100835.66;5054826;28;20062;-78
2021/03/10 05:55:44;;;;;;;95.60;42.60;;;3.00;99.90;;;3.51;100.00;100838.31;5054462;28;20044;-79
2021/03/10 05:58:14;;;;;;;96.40;42.70;;;3.00;99.90;;;3.49;100.00;100834.22;5055129;28;20025;-78
2021/03/10 06:00:48;;;;;;;104.85;44.97;;;3.00;99.90;;;3.49;100.00;100843.34;5053591;28;20086;-78
2021/03/10 06:03:16;;;;;;;91.68;41.20;;;3.00;99.90;;;3.54;100.00;100848.75;5055242;28;20031;-80
2021/03/10 06:05:44;;;;;;;89.35;41.08;;;3.00;99.90;;;3.52;100.00;100847.41;5056364;28;20108;-77
2021/03/10 06:08:15;;;;;;;86.70;40.72;;;3.00;99.90;;;3.48;100.00;100840.88;5056113;28;20029;-78
2021/03/10 06:10:48;;;;;;;86.28;40.45;;;3.00;99.90;;;3.42;100.00;100845.69;5056585;28;20047;-79
2021/03/10 06:13:32;;;;;;;99.40;42.25;;;2.90;99.90;;;3.43;100.00;100844.56;5054856;28;20050;-79
2021/03/10 06:16:02;;;;;;;90.60;41.72;;;3.00;99.90;;;3.42;100.00;100842.91;5054809;28;20025;-79
2021/03/10 06:18:35;;;;;;;88.72;41.30;;;3.00;99.90;;;3.42;100.00;100842.91;5055126;28;20029;-78
2021/03/10 06:21:09;;;;;;;88.78;39.88;;;3.00;99.90;;;3.47;100.00;100839.22;5055283;28;20491;-77
2021/03/10 06:23:49;;;;;;;87.00;39.95;;;3.00;99.90;;;3.44;100.00;100831.56;5054283;28;20103;-76
2021/03/10 06:26:22;;;;;;;85.57;40.35;;;3.00;99.90;;;3.41;100.00;100840.44;5055073;28;20037;-78
2021/03/10 06:28:49;;;;;;;80.38;39.25;;;3.00;99.90;;;3.45;100.00;100850.59;5059139;28;20055;-76
2021/03/10 06:31:31;;;;;;;78.25;37.70;;;3.00;99.90;;;3.54;100.00;100839.63;5057670;28;20033;-77
2021/03/10 06:34:17;;;;;;;81.50;37.72;;;3.10;99.90;;;3.62;100.00;100841.69;5055323;28;20033;-78
2021/03/10 06:36:48;;;;;;;78.03;38.47;;;3.10;99.90;;;3.66;100.00;100838.00;5059717;28;20033;-78
2021/03/10 06:39:35;;;;;;;76.28;36.92;;;3.10;99.90;;;3.68;100.00;100832.19;5053414;28;20021;-79
2021/03/10 06:42:13;;;;;;;73.07;35.78;;;3.10;99.90;;;3.71;100.00;100834.31;5054928;28;20075;-78
2021/03/10 06:44:53;;;;;;;74.85;37.10;;;3.20;99.90;;;3.77;100.00;100829.50;5055904;28;20493;-76
2021/03/10 06:47:19;;;;;;;68.75;35.15;;;3.20;99.90;;;3.82;99.48;100829.41;5055415;28;20035;-77
2021/03/10 06:49:54;;;;;;;69.13;33.50;;;3.30;99.90;;;3.81;99.34;100828.59;5054162;28;20029;-78
2021/03/10 06:52:21;;;;;;;64.50;33.17;;;3.30;99.90;;;3.87;98.76;100827.34;5053761;28;20104;-78
2021/03/10 06:55:03;;;;;;;63.80;33.85;;;3.40;99.90;;;3.93;98.72;100839.09;5057231;28;20108;-77
2021/03/10 06:57:53;;;;;;;59.33;30.48;;;3.50;99.90;;;4.02;98.47;100834.47;5055701;28;20029;-78
2021/03/10 07:00:23;;;;;;;60.10;31.50;;;3.60;99.90;;;4.04;97.51;100846.88;5054890;28;20017;-76
2021/03/10 07:02:50;;;;;;;58.40;30.52;;;3.60;99.90;;;4.15;97.04;100839.97;5055515;28;20029;-77
2021/03/10 07:05:17;;;;;;;58.58;30.77;;;3.70;99.90;;;4.20;96.65;100834.34;5054939;28;20515;-80
2021/03/10 07:07:46;;;;;;;51.72;29.20;;;3.70;99.90;;;4.17;96.86;100832.19;5054798;28;20020;-79
2021/03/10 07:10:12;;;;;;;58.70;30.85;;;3.80;99.90;;;4.21;96.36;100835.97;5055042;28;20040;-79
2021/03/10 07:12:39;;;;;;;49.90;28.55;;;3.80;99.90;;;4.32;96.30;100842.09;5054795;28;20060;-79
2021/03/10 07:15:06;;;;;;;50.97;26.90;;;3.90;99.90;;;4.44;95.92;100844.31;5054880;28;20104;-78
2021/03/10 07:17:32;;;;;;;52.95;26.75;;;4.00;99.90;;;4.51;95.23;100842.75;5055103;28;20507;-77
2021/03/10 07:19:58;;;;;;;49.67;28.83;;;4.00;99.90;;;4.67;94.54;100840.44;5055059;28;20025;-79
2021/03/10 07:23:01;;;;;;;40.92;25.40;;;4.10;99.90;;;4.73;94.81;100840.00;5055099;28;20493;-80
2021/03/10 07:25:42;;;;;;;47.58;27.50;;;4.20;99.90;;;4.81;94.37;100846.72;5055924;28;20178;-78
2021/03/10 07:28:32;;;;;;;47.88;27.63;;;4.20;99.90;;;4.79;94.42;100851.75;5056383;28;20033;-76
2021/03/10 07:30:58;;;;;;;54.60;29.20;;;4.30;99.90;;;4.77;94.10;100846.53;5056085;28;20044;-79
2021/03/10 07:33:25;;;;;;;45.70;26.90;;;4.40;99.90;;;4.73;94.18;100848.28;5057336;28;20063;-76
2021/03/10 07:35:53;;;;;;;48.13;27.60;;;4.40;99.90;;;4.88;94.66;100862.88;5054650;28;20036;-79
2021/03/10 07:38:23;;;;;;;44.45;27.48;;;4.50;99.90;;;4.98;94.24;100865.38;5054399;28;20554;-79
2021/03/10 07:41:05;;;;;;;48.28;27.98;;;4.50;99.90;;;5.11;92.96;100861.72;5054530;28;20029;-79
2021/03/10 07:43:48;;;;;;;44.70;26.05;;;4.60;99.90;;;5.02;93.04;100858.09;5053890;28;20039;-77
2021/03/10 07:46:37;;;;;;;44.60;25.20;;;4.60;99.90;;;5.09;92.74;100864.00;5054968;28;20170;-79
2021/03/10 07:49:22;;;;;;;45.05;26.48;;;4.60;99.90;;;5.20;92.92;100866.16;5062412;28;20033;-79
2021/03/10 07:52:03;;;;;;;47.40;26.05;;;4.60;99.90;;;5.24;92.30;100867.19;5066469;28;20025;-76
2021/03/10 07:54:29;;;;;;;45.83;27.13;;;4.70;99.90;;;5.25;93.16;100871.59;5054930;28;20052;-78
2021/03/10 07:57:13;;;;;;;45.97;26.65;;;4.70;99.90;;;5.36;92.44;100868.56;5055700;28;20032;-79
2021/03/10 07:59:56;;;;;;;47.42;26.60;;;4.70;99.90;;;5.38;92.84;100860.75;5054595;28;20040;-78
2021/03/10 08:02:26;;;;;;;45.45;26.60;;;4.80;99.90;;;5.42;92.41;100858.97;5055461;28;20040;-76
2021/03/10 08:05:01;;;;;;;48.80;27.30;;;4.90;99.90;;;5.50;92.02;100849.88;5054951;28;20032;-77
2021/03/10 08:07:32;;;;;;;41.85;24.70;;;4.90;99.90;;;5.48;91.62;100854.94;5055488;28;20029;-78
2021/03/10 08:09:59;;;;;;;42.03;25.13;;;4.90;99.90;;;5.47;91.46;100856.88;5053965;28;20392;-76
2021/03/10 08:14:52;;;;;;;40.85;24.85;;;5.00;99.90;;;5.52;91.29;100853.16;5089443;22;20400;-81
2021/03/10 08:17:25;;;;;;;38.83;23.00;;;5.10;99.90;;;5.56;90.08;100860.50;5037785;28;20026;-82
2021/03/10 08:20:05;;;;;;;46.22;23.90;;;5.10;99.90;;;5.64;90.61;100854.19;5042031;28;20052;-79
2021/03/10 08:22:33;;;;;;;37.42;22.77;;;5.10;99.90;;;5.60;90.19;100853.19;5049611;28;20038;-82
2021/03/10 08:25:05;;;;;;;39.30;22.83;;;5.10;99.90;;;5.60;89.90;100850.41;5071465;28;20036;-81
2021/03/10 08:27:38;;;;;;;36.38;21.90;;;5.20;99.90;;;5.65;90.43;100853.03;5065591;28;20096;-82
2021/03/10 08:30:13;;;;;;;38.30;23.42;;;5.20;99.90;;;5.75;89.57;100857.47;5072651;28;20021;-82
2021/03/10 08:32:41;;;;;;;44.67;24.05;;;5.20;99.90;;;5.86;89.55;100852.47;5069610;28;20029;-81
2021/03/10 08:35:18;;;;;;;34.00;19.77;;;5.30;99.90;;;5.75;88.71;100847.19;5055992;28;20124;-81
2021/03/10 08:37:59;;;;;;;37.38;21.23;;;5.40;99.90;;;5.94;88.41;100848.94;5056009;28;20029;-81
2021/03/10 08:40:29;;;;;;;31.58;19.70;;;5.40;99.90;;;5.96;87.61;100839.16;5054150;28;20033;-81
2021/03/10 08:43:01;;;;;;;36.58;20.90;;;5.50;99.90;;;6.02;87.96;100843.41;5054579;28;20039;-80
2021/03/10 08:45:36;;;;;;;35.17;20.73;;;5.50;99.90;;;6.05;87.36;100839.16;5054569;28;20028;-80
2021/03/10 08:48:10;;;;;;;32.85;18.95;;;5.60;99.90;;;6.22;86.62;100836.41;5055003;28;20062;-81
2021/03/10 08:50:45;;;;;;;35.30;19.85;;;5.70;99.90;;;6.34;86.18;100839.38;5054878;28;20032;-81
2021/03/10 08:53:14;;;;;;;32.88;19.95;;;5.80;99.90;;;6.42;85.63;100840.53;5056115;28;20031;-80
2021/03/10 08:55:42;;;;;;;34.45;19.60;;;5.90;99.90;;;6.41;84.64;100839.69;5055697;28;20036;-81
2021/03/10 08:58:18;;;;;;;37.10;21.75;;;5.90;99.90;;;6.34;85.24;100836.59;5055752;28;20029;-80
2021/03/10 09:00:45;;;;;;;36.30;20.52;;;5.90;99.90;;;6.36;85.55;100832.34;5055476;28;20048;-81
2021/03/10 09:03:19;;;;;;;35.90;19.90;;;6.00;99.90;;;6.47;85.75;100834.78;5055357;28;20036;-82
2021/03/10 09:05:49;;;;;;;34.90;20.20;;;6.00;99.90;;;6.50;84.77;100836.91;5053802;28;20032;-80
2021/03/10 09:08:23;;;;;;;36.67;21.20;;;6.10;99.90;;;6.44;85.61;100832.69;5068254;28;20108;-80
2021/03/10 09:10:54;;;;;;;35.90;21.02;;;6.10;99.90;;;6.53;84.93;100825.16;5074190;28;20025;-81
2021/03/10 09:13:22;;;;;;;33.35;21.35;;;6.20;99.90;;;6.72;84.47;100814.53;5074636;28;20149;-82
2021/03/10 09:15:49;;;;;;;35.30;20.88;;;6.20;99.90;;;6.81;84.32;100823.66;5074954;28;20032;-82
2021/03/10 09:18:16;;;;;;;44.25;24.40;;;6.30;99.90;;;6.84;83.63;100817.44;5077180;28;20028;-80
2021/03/10 09:20:46;;;;;;;40.17;21.67;;;6.40;99.90;;;6.86;83.33;100824.34;5077329;28;20094;-80
2021/03/10 09:23:25;;;;;;;41.63;22.67;;;6.50;99.90;;;6.88;84.19;100822.03;5077515;28;20499;-81
2021/03/10 09:25:56;;;;;;;39.08;21.92;;;6.50;99.90;;;6.93;83.84;100823.00;5076282;28;20035;-81
2021/03/10 09:28:23;;;;;;;38.50;21.00;;;6.60;99.90;;;7.14;83.20;100823.94;5076765;28;20514;-81
2021/03/10 09:30:52;;;;;;;39.88;22.88;;;6.60;99.90;;;7.28;82.45;100828.16;5075864;28;20021;-81
2021/03/10 09:33:28;;;;;;;40.75;22.60;;;6.80;99.90;;;7.33;81.82;100824.38;5077789;28;20025;-80
2021/03/10 09:36:02;;;;;;;41.17;22.58;;;6.90;99.90;;;7.59;81.44;100816.75;5076975;28;20458;-80
2021/03/10 09:38:31;;;;;;;42.78;23.67;;;7.00;99.90;;;7.52;82.00;100807.28;5076668;28;20024;-80
2021/03/10 09:41:04;;;;;;;40.63;22.13;;;7.10;99.90;;;7.51;81.84;100803.72;5077036;28;20027;-80
2021/03/10 09:43:33;;;;;;;39.80;21.98;;;7.10;99.90;;;7.55;80.75;100807.44;5076081;28;20154;-81
2021/03/10 09:46:08;;;;;;;36.65;21.70;;;7.20;99.90;;;7.51;81.08;100802.91;5077632;28;20464;-82
2021/03/10 09:48:40;;;;;;;38.85;23.13;;;7.10;99.90;;;7.74;80.40;100795.88;5077645;28;20029;-80
2021/03/10 09:51:16;;;;;;;43.60;24.63;;;7.20;99.90;;;7.64;79.52;100793.50;5076090;28;20028;-82
2021/03/10 09:53:45;;;;;;;;;;;7.20;99.90;;;7.63;81.27;100792.69;5078412;28;20031;-82
2021/03/10 09:56:16;;;;;;;40.78;22.77;;;7.20;99.90;;;7.64;80.19;100776.84;5076213;28;19909;-80
2021/03/10 09:59:00;;;;;;;43.42;23.73;;;7.20;99.90;;;7.91;79.27;100784.66;5077447;28;20036;-81
2021/03/10 10:01:30;;;;;;;44.42;24.30;;;7.30;99.90;;;8.06;79.45;100778.50;5077877;28;20032;-81
2021/03/10 10:03:58;;;;;;;42.90;24.38;;;7.50;99.90;;;8.29;78.26;100784.59;5079507;28;20084;-81
2021/03/10 10:06:25;;;;;;;50.63;25.55;;;7.70;99.90;;;8.17;78.86;100784.50;5078484;28;20059;-81
2021/03/10 10:08:51;;;;;;;44.25;24.83;;;7.80;99.90;;;8.44;77.77;100778.44;5065374;28;20028;-84
2021/03/10 10:11:20;;;;;;;44.55;25.77;;;8.00;99.90;;;8.70;77.13;100789.31;5059199;28;20043;-82
2021/03/10 10:13:50;;;;;;;44.92;26.15;;;8.20;99.90;;;8.92;76.60;100778.59;5056996;28;20040;-81
2021/03/10 10:16:17;;;;;;;47.60;25.83;;;8.30;99.90;;;9.26;76.43;100771.00;5057257;28;20167;-80
2021/03/10 10:18:45;;;;;;;49.05;26.38;;;8.60;99.90;;;9.60;74.56;100775.34;5058859;28;20028;-81
2021/03/10 10:21:13;;;;;;;45.95;26.45;;;8.80;99.90;;;9.73;73.59;100768.59;5058518;28;20132;-83
2021/03/10 10:23:40;;;;;;;47.25;26.33;;;9.00;99.90;;;9.77;72.37;100775.09;5058417;28;20110;-82
2021/03/10 10:26:06;;;;;;;47.38;27.55;;;9.20;99.90;;;9.76;72.52;100773.47;5058479;28;20112;-81